sensor_id;sensor_type;location;lat;lon;timestamp;pressure;altitude;pressure_sealevel;temperature;humidity
54022;BME280;39936;51.058;17.220;2023-02-22T00:01:04;101775.07;;;5.12;92.17
54022;BME280;39936;51.058;17.220;2023-02-22T00:09:24;101777.32;;;4.97;93.22
54022;BME280;39936;51.058;17.220;2023-02-22T00:16:56;101780.12;;;4.85;94.36
54022;BME280;39936;51.058;17.220;2023-02-22T00:20:30;101788.51;;;4.81;95.20
54022;BME280;39936;51.058;17.220;2023-02-22T00:25:47;101790.34;;;4.83;95.53
54022;BME280;39936;51.058;17.220;2023-02-22T00:29:27;101790.98;;;4.83;96.67
54022;BME280;39936;51.058;17.220;2023-02-22T00:33:04;101791.87;;;4.80;97.52
54022;BME280;39936;51.058;17.220;2023-02-22T00:36:36;101793.68;;;4.73;98.21
54022;BME280;39936;51.058;17.220;2023-02-22T00:44:05;101795.88;;;4.58;100.00
54022;BME280;39936;51.058;17.220;2023-02-22T00:47:35;101798.54;;;4.55;100.00
54022;BME280;39936;51.058;17.220;2023-02-22T00:51:26;101795.20;;;4.46;100.00
54022;BME280;39936;51.058;17.220;2023-02-22T00:55:20;101805.12;;;4.42;100.00
54022;BME280;39936;51.058;17.220;2023-02-22T00:58:38;101800.27;;;4.26;100.00
54022;BME280;39936;51.058;17.220;2023-02-22T01:02:24;101804.88;;;4.18;100.00
54022;BME280;39936;51.058;17.220;2023-02-22T01:05:48;101807.87;;;4.13;100.00
54022;BME280;39936;51.058;17.220;2023-02-22T01:09:30;101813.36;;;4.12;100.00
54022;BME280;39936;51.058;17.220;2023-02-22T01:13:15;101812.19;;;4.05;100.00
54022;BME280;39936;51.058;17.220;2023-02-22T01:17:15;101820.73;;;4.01;100.00
54022;BME280;39936;51.058;17.220;2023-02-22T01:20:34;101812.97;;;3.91;100.00
54022;BME280;39936;51.058;17.220;2023-02-22T01:24:09;101816.70;;;3.89;100.00
54022;BME280;39936;51.058;17.220;2023-02-22T01:28:08;101814.23;;;3.81;100.00
54022;BME280;39936;51.058;17.220;2023-02-22T01:32:40;101796.95;;;3.64;100.00
54022;BME280;39936;51.058;17.220;2023-02-22T01:37:08;101819.32;;;3.71;100.00
54022;BME280;39936;51.058;17.220;2023-02-22T01:40:37;101817.66;;;3.70;100.00
54022;BME280;39936;51.058;17.220;2023-02-22T01:51:56;101813.79;;;3.81;100.00
54022;BME280;39936;51.058;17.220;2023-02-22T01:55:49;101813.59;;;3.73;100.00
54022;BME280;39936;51.058;17.220;2023-02-22T01:59:45;101804.26;;;3.58;100.00
54022;BME280;39936;51.058;17.220;2023-02-22T02:03:24;101805.21;;;3.62;100.00
54022;BME280;39936;51.058;17.220;2023-02-22T02:07:16;101798.56;;;3.65;100.00
54022;BME280;39936;51.058;17.220;2023-02-22T02:10:43;101804.01;;;3.69;100.00
54022;BME280;39936;51.058;17.220;2023-02-22T02:18:11;101778.56;;;3.51;100.00
54022;BME280;39936;51.058;17.220;2023-02-22T02:22:01;101777.29;;;3.41;100.00
54022;BME280;39936;51.058;17.220;2023-02-22T02:38:15;101809.45;;;3.42;100.00
54022;BME280;39936;51.058;17.220;2023-02-22T02:41:43;101809.07;;;3.40;100.00
54022;BME280;39936;51.058;17.220;2023-02-22T02:45:48;101806.31;;;3.44;100.00
54022;BME280;39936;51.058;17.220;2023-02-22T02:49:50;101804.71;;;3.48;100.00
54022;BME280;39936;51.058;17.220;2023-02-22T02:57:40;101802.27;;;3.54;100.00
54022;BME280;39936;51.058;17.220;2023-02-22T03:09:24;101807.98;;;3.59;100.00
54022;BME280;39936;51.058;17.220;2023-02-22T03:13:39;101805.66;;;3.58;100.00
54022;BME280;39936;51.058;17.220;2023-02-22T03:18:03;101804.20;;;3.63;100.00
54022;BME280;39936;51.058;17.220;2023-02-22T03:21:39;101806.03;;;3.70;100.00
54022;BME280;39936;51.058;17.220;2023-02-22T03:25:21;101805.31;;;3.74;100.00
54022;BME280;39936;51.058;17.220;2023-02-22T03:29:56;101799.83;;;3.75;100.00
54022;BME280;39936;51.058;17.220;2023-02-22T03:33:55;101798.57;;;3.79;100.00
54022;BME280;39936;51.058;17.220;2023-02-22T03:37:43;101803.55;;;3.82;100.00
54022;BME280;39936;51.058;17.220;2023-02-22T03:41:25;101800.97;;;3.82;100.00
54022;BME280;39936;51.058;17.220;2023-02-22T03:44:50;101804.17;;;3.80;100.00
54022;BME280;39936;51.058;17.220;2023-02-22T03:48:36;101802.32;;;3.74;100.00
54022;BME280;39936;51.058;17.220;2023-02-22T03:52:39;101796.25;;;3.62;100.00
54022;BME280;39936;51.058;17.220;2023-02-22T03:56:10;101814.69;;;3.75;100.00
54022;BME280;39936;51.058;17.220;2023-02-22T03:59:42;101815.84;;;3.75;100.00
54022;BME280;39936;51.058;17.220;2023-02-22T04:03:19;101818.28;;;3.78;100.00
54022;BME280;39936;51.058;17.220;2023-02-22T04:07:27;101817.59;;;3.69;100.00
54022;BME280;39936;51.058;17.220;2023-02-22T04:11:09;101823.65;;;3.72;100.00
54022;BME280;39936;51.058;17.220;2023-02-22T04:15:15;101823.12;;;3.76;100.00
54022;BME280;39936;51.058;17.220;2023-02-22T04:19:19;101824.81;;;3.79;100.00
54022;BME280;39936;51.058;17.220;2023-02-22T04:23:06;101822.12;;;3.82;100.00
54022;BME280;39936;51.058;17.220;2023-02-22T04:26:38;101820.35;;;3.83;100.00
54022;BME280;39936;51.058;17.220;2023-02-22T04:30:31;101813.69;;;3.79;100.00
54022;BME280;39936;51.058;17.220;2023-02-22T04:34:11;101817.67;;;3.75;100.00
54022;BME280;39936;51.058;17.220;2023-02-22T04:38:06;101828.82;;;3.69;100.00
54022;BME280;39936;51.058;17.220;2023-02-22T04:42:03;101825.58;;;3.62;100.00
54022;BME280;39936;51.058;17.220;2023-02-22T04:45:45;101790.11;;;3.31;100.00
54022;BME280;39936;51.058;17.220;2023-02-22T04:49:34;101819.86;;;3.43;100.00
54022;BME280;39936;51.058;17.220;2023-02-22T04:53:29;101816.38;;;3.34;100.00
54022;BME280;39936;51.058;17.220;2023-02-22T04:57:22;101818.76;;;3.11;100.00
54022;BME280;39936;51.058;17.220;2023-02-22T05:01:16;101824.17;;;2.87;100.00
54022;BME280;39936;51.058;17.220;2023-02-22T05:09:16;101814.95;;;2.69;100.00
54022;BME280;39936;51.058;17.220;2023-02-22T05:12:58;101818.97;;;2.76;100.00
54022;BME280;39936;51.058;17.220;2023-02-22T05:16:23;101821.42;;;2.79;100.00
54022;BME280;39936;51.058;17.220;2023-02-22T05:19:57;101821.05;;;2.77;100.00
54022;BME280;39936;51.058;17.220;2023-02-22T05:23:55;101819.52;;;2.76;100.00
54022;BME280;39936;51.058;17.220;2023-02-22T05:27:41;101820.63;;;2.69;100.00
54022;BME280;39936;51.058;17.220;2023-02-22T05:31:06;101820.52;;;2.53;100.00
54022;BME280;39936;51.058;17.220;2023-02-22T05:34:47;101825.38;;;2.00;100.00
54022;BME280;39936;51.058;17.220;2023-02-22T05:38:27;101827.58;;;1.92;100.00
54022;BME280;39936;51.058;17.220;2023-02-22T05:41:46;101828.19;;;1.95;100.00
54022;BME280;39936;51.058;17.220;2023-02-22T05:45:32;101829.06;;;1.99;100.00
54022;BME280;39936;51.058;17.220;2023-02-22T05:48:53;101831.72;;;2.06;100.00
54022;BME280;39936;51.058;17.220;2023-02-22T05:52:29;101833.43;;;2.11;100.00
54022;BME280;39936;51.058;17.220;2023-02-22T05:56:27;101838.43;;;2.13;100.00
54022;BME280;39936;51.058;17.220;2023-02-22T06:00:26;101838.04;;;1.93;100.00
54022;BME280;39936;51.058;17.220;2023-02-22T06:03:49;101836.70;;;1.83;100.00
54022;BME280;39936;51.058;17.220;2023-02-22T06:07:16;101849.11;;;1.93;100.00
54022;BME280;39936;51.058;17.220;2023-02-22T06:10:34;101854.76;;;2.00;100.00
54022;BME280;39936;51.058;17.220;2023-02-22T06:14:41;101854.04;;;2.02;100.00
54022;BME280;39936;51.058;17.220;2023-02-22T06:18:27;101855.48;;;2.06;100.00
54022;BME280;39936;51.058;17.220;2023-02-22T06:22:02;101856.59;;;2.09;100.00
54022;BME280;39936;51.058;17.220;2023-02-22T06:25:47;101859.25;;;2.09;100.00
54022;BME280;39936;51.058;17.220;2023-02-22T06:29:05;101861.11;;;2.05;100.00
54022;BME280;39936;51.058;17.220;2023-02-22T06:36:52;101864.23;;;2.06;100.00
54022;BME280;39936;51.058;17.220;2023-02-22T06:40:30;101868.92;;;1.97;100.00
54022;BME280;39936;51.058;17.220;2023-02-22T06:44:29;101863.21;;;1.99;100.00
54022;BME280;39936;51.058;17.220;2023-02-22T06:47:56;101850.07;;;2.04;100.00
54022;BME280;39936;51.058;17.220;2023-02-22T06:51:52;101880.57;;;2.40;100.00
54022;BME280;39936;51.058;17.220;2023-02-22T06:55:53;101885.28;;;2.60;100.00
54022;BME280;39936;51.058;17.220;2023-02-22T06:59:37;101890.08;;;2.78;100.00
54022;BME280;39936;51.058;17.220;2023-02-22T07:03:01;101892.05;;;2.88;100.00
54022;BME280;39936;51.058;17.220;2023-02-22T07:06:48;101888.34;;;3.03;100.00
54022;BME280;39936;51.058;17.220;2023-02-22T07:11:05;101889.07;;;3.25;100.00
54022;BME280;39936;51.058;17.220;2023-02-22T07:15:35;101892.55;;;3.43;100.00
54022;BME280;39936;51.058;17.220;2023-02-22T07:19:08;101893.96;;;3.74;100.00
54022;BME280;39936;51.058;17.220;2023-02-22T07:23:02;101887.84;;;3.83;100.00
54022;BME280;39936;51.058;17.220;2023-02-22T07:26:43;101865.70;;;3.87;100.00
54022;BME280;39936;51.058;17.220;2023-02-22T07:30:39;101887.64;;;4.13;100.00
54022;BME280;39936;51.058;17.220;2023-02-22T07:34:22;101892.10;;;4.32;100.00
54022;BME280;39936;51.058;17.220;2023-02-22T07:38:12;101891.12;;;4.36;100.00
54022;BME280;39936;51.058;17.220;2023-02-22T07:41:59;101894.99;;;4.45;100.00
54022;BME280;39936;51.058;17.220;2023-02-22T07:45:39;101895.57;;;4.56;100.00
54022;BME280;39936;51.058;17.220;2023-02-22T07:49:12;101894.47;;;4.85;100.00
54022;BME280;39936;51.058;17.220;2023-02-22T07:53:30;101892.24;;;5.06;100.00
54022;BME280;39936;51.058;17.220;2023-02-22T07:57:37;101893.41;;;5.16;100.00
54022;BME280;39936;51.058;17.220;2023-02-22T08:01:24;101894.28;;;5.22;100.00
54022;BME280;39936;51.058;17.220;2023-02-22T08:05:45;101895.98;;;5.25;100.00
54022;BME280;39936;51.058;17.220;2023-02-22T08:09:39;101896.59;;;5.26;100.00
54022;BME280;39936;51.058;17.220;2023-02-22T08:13:39;101897.02;;;5.22;100.00
54022;BME280;39936;51.058;17.220;2023-02-22T08:17:21;101881.59;;;5.38;100.00
54022;BME280;39936;51.058;17.220;2023-02-22T08:21:23;101899.98;;;5.57;100.00
54022;BME280;39936;51.058;17.220;2023-02-22T08:28:42;101898.44;;;5.66;100.00
54022;BME280;39936;51.058;17.220;2023-02-22T08:32:27;101903.12;;;5.52;100.00
54022;BME280;39936;51.058;17.220;2023-02-22T08:36:12;101897.87;;;5.64;100.00
54022;BME280;39936;51.058;17.220;2023-02-22T08:40:03;101892.91;;;5.79;100.00
54022;BME280;39936;51.058;17.220;2023-02-22T08:43:25;101893.91;;;5.94;100.00
54022;BME280;39936;51.058;17.220;2023-02-22T08:46:49;101869.96;;;5.87;100.00
54022;BME280;39936;51.058;17.220;2023-02-22T08:50:31;101876.08;;;5.63;99.13
54022;BME280;39936;51.058;17.220;2023-02-22T08:58:24;101883.99;;;6.12;100.00
54022;BME280;39936;51.058;17.220;2023-02-22T09:02:02;101880.56;;;6.31;100.00
54022;BME280;39936;51.058;17.220;2023-02-22T09:05:44;101882.20;;;6.43;97.63
54022;BME280;39936;51.058;17.220;2023-02-22T09:09:21;101847.47;;;6.43;97.33
54022;BME280;39936;51.058;17.220;2023-02-22T09:17:04;101878.13;;;6.33;93.34
54022;BME280;39936;51.058;17.220;2023-02-22T09:24:58;101875.76;;;5.85;94.95
54022;BME280;39936;51.058;17.220;2023-02-22T09:28:36;101874.98;;;5.90;94.00
54022;BME280;39936;51.058;17.220;2023-02-22T09:32:08;101876.91;;;5.76;89.97
54022;BME280;39936;51.058;17.220;2023-02-22T09:35:28;101874.30;;;5.71;90.14
54022;BME280;39936;51.058;17.220;2023-02-22T09:39:00;101882.19;;;5.80;91.17
54022;BME280;39936;51.058;17.220;2023-02-22T09:42:33;101879.52;;;5.88;89.18
54022;BME280;39936;51.058;17.220;2023-02-22T09:46:30;101875.08;;;6.09;90.72
54022;BME280;39936;51.058;17.220;2023-02-22T09:50:16;101878.49;;;6.23;90.97
54022;BME280;39936;51.058;17.220;2023-02-22T09:53:41;101881.70;;;6.40;88.84
54022;BME280;39936;51.058;17.220;2023-02-22T10:01:15;101879.72;;;6.74;87.07
54022;BME280;39936;51.058;17.220;2023-02-22T10:05:02;101876.27;;;7.11;86.43
54022;BME280;39936;51.058;17.220;2023-02-22T10:08:34;101872.46;;;7.46;85.07
54022;BME280;39936;51.058;17.220;2023-02-22T10:24:10;101819.89;;;8.01;74.05
54022;BME280;39936;51.058;17.220;2023-02-22T10:28:01;101855.34;;;7.99;70.66
54022;BME280;39936;51.058;17.220;2023-02-22T10:32:05;101858.57;;;7.48;68.39
54022;BME280;39936;51.058;17.220;2023-02-22T10:35:43;101867.48;;;7.41;67.81
54022;BME280;39936;51.058;17.220;2023-02-22T10:39:32;101863.56;;;7.24;66.35
54022;BME280;39936;51.058;17.220;2023-02-22T10:42:55;101859.24;;;7.19;65.80
54022;BME280;39936;51.058;17.220;2023-02-22T10:46:50;101859.23;;;7.10;64.28
54022;BME280;39936;51.058;17.220;2023-02-22T10:50:46;101860.94;;;7.24;65.70
54022;BME280;39936;51.058;17.220;2023-02-22T11:05:52;101836.10;;;8.22;65.98
54022;BME280;39936;51.058;17.220;2023-02-22T11:09:23;101837.45;;;8.27;62.85
54022;BME280;39936;51.058;17.220;2023-02-22T11:13:33;101833.17;;;8.23;63.03
54022;BME280;39936;51.058;17.220;2023-02-22T11:21:29;101795.30;;;8.34;62.77
54022;BME280;39936;51.058;17.220;2023-02-22T11:29:37;101826.84;;;8.46;64.01
54022;BME280;39936;51.058;17.220;2023-02-22T11:32:59;101823.51;;;8.59;64.48
54022;BME280;39936;51.058;17.220;2023-02-22T11:36:32;101821.18;;;8.61;64.29
54022;BME280;39936;51.058;17.220;2023-02-22T11:40:20;101822.77;;;8.16;62.27
54022;BME280;39936;51.058;17.220;2023-02-22T11:47:58;101817.25;;;8.43;63.50
54022;BME280;39936;51.058;17.220;2023-02-22T11:55:33;101811.37;;;8.20;64.56
54022;BME280;39936;51.058;17.220;2023-02-22T12:21:45;101817.06;;;8.28;63.87
54022;BME280;39936;51.058;17.220;2023-02-22T12:29:19;101814.55;;;8.02;63.44
54022;BME280;39936;51.058;17.220;2023-02-22T12:33:13;101812.03;;;8.04;64.13
54022;BME280;39936;51.058;17.220;2023-02-22T12:44:41;101808.45;;;8.09;63.07
54022;BME280;39936;51.058;17.220;2023-02-22T12:51:59;101811.90;;;7.79;63.40
54022;BME280;39936;51.058;17.220;2023-02-22T12:55:50;101798.45;;;7.79;64.58
54022;BME280;39936;51.058;17.220;2023-02-22T12:59:51;101806.91;;;8.09;62.85
54022;BME280;39936;51.058;17.220;2023-02-22T13:04:13;101800.44;;;8.01;62.29
54022;BME280;39936;51.058;17.220;2023-02-22T13:08:24;101797.91;;;8.29;64.24
54022;BME280;39936;51.058;17.220;2023-02-22T13:24:18;101789.43;;;9.13;60.74
54022;BME280;39936;51.058;17.220;2023-02-22T13:28:01;101790.19;;;8.97;60.17
54022;BME280;39936;51.058;17.220;2023-02-22T13:51:57;101779.41;;;8.36;60.38
54022;BME280;39936;51.058;17.220;2023-02-22T13:55:58;101796.69;;;8.24;61.39
54022;BME280;39936;51.058;17.220;2023-02-22T13:59:37;101797.94;;;8.17;61.73
54022;BME280;39936;51.058;17.220;2023-02-22T14:03:27;101798.55;;;8.05;61.42
54022;BME280;39936;51.058;17.220;2023-02-22T14:07:01;101779.36;;;8.01;62.45
54022;BME280;39936;51.058;17.220;2023-02-22T14:14:20;101774.53;;;8.28;61.57
54022;BME280;39936;51.058;17.220;2023-02-22T14:18:03;101780.67;;;8.44;61.50
54022;BME280;39936;51.058;17.220;2023-02-22T14:22:03;101784.38;;;8.51;61.06
54022;BME280;39936;51.058;17.220;2023-02-22T14:25:49;101792.80;;;8.08;60.58
54022;BME280;39936;51.058;17.220;2023-02-22T14:29:31;101790.16;;;7.80;63.07
54022;BME280;39936;51.058;17.220;2023-02-22T14:33:55;101777.43;;;7.70;62.58
54022;BME280;39936;51.058;17.220;2023-02-22T14:37:23;101788.07;;;7.78;64.57
54022;BME280;39936;51.058;17.220;2023-02-22T14:40:47;101789.75;;;7.92;63.75
54022;BME280;39936;51.058;17.220;2023-02-22T14:48:39;101786.35;;;7.57;63.14
54022;BME280;39936;51.058;17.220;2023-02-22T14:52:16;101784.58;;;7.46;63.17
54022;BME280;39936;51.058;17.220;2023-02-22T14:55:36;101776.80;;;7.48;65.64
54022;BME280;39936;51.058;17.220;2023-02-22T14:59:32;101781.15;;;7.53;62.78
54022;BME280;39936;51.058;17.220;2023-02-22T15:07:26;101776.04;;;7.35;64.86
54022;BME280;39936;51.058;17.220;2023-02-22T15:11:40;101778.11;;;7.31;66.01
54022;BME280;39936;51.058;17.220;2023-02-22T15:15:23;101777.60;;;7.36;63.88
54022;BME280;39936;51.058;17.220;2023-02-22T15:18:58;101779.01;;;7.34;63.47
54022;BME280;39936;51.058;17.220;2023-02-22T15:22:21;101778.17;;;7.31;65.12
54022;BME280;39936;51.058;17.220;2023-02-22T15:26:02;101776.43;;;7.26;65.76
54022;BME280;39936;51.058;17.220;2023-02-22T15:29:44;101772.34;;;7.13;64.61
54022;BME280;39936;51.058;17.220;2023-02-22T15:33:09;101733.30;;;6.81;66.53
54022;BME280;39936;51.058;17.220;2023-02-22T15:37:13;101769.19;;;6.96;65.91
54022;BME280;39936;51.058;17.220;2023-02-22T15:40:35;101774.14;;;6.86;66.89
54022;BME280;39936;51.058;17.220;2023-02-22T15:44:17;101777.31;;;6.78;67.60
54022;BME280;39936;51.058;17.220;2023-02-22T15:48:10;101779.86;;;6.75;67.85
54022;BME280;39936;51.058;17.220;2023-02-22T15:52:06;101778.30;;;6.72;69.07
54022;BME280;39936;51.058;17.220;2023-02-22T15:56:31;101783.80;;;6.70;69.75
54022;BME280;39936;51.058;17.220;2023-02-22T16:00:36;101786.43;;;6.67;70.13
54022;BME280;39936;51.058;17.220;2023-02-22T16:04:30;101789.12;;;6.66;70.32
54022;BME280;39936;51.058;17.220;2023-02-22T16:08:48;101791.07;;;6.63;70.58
54022;BME280;39936;51.058;17.220;2023-02-22T16:12:24;101795.59;;;6.48;71.16
54022;BME280;39936;51.058;17.220;2023-02-22T16:16:31;101801.26;;;6.40;72.19
54022;BME280;39936;51.058;17.220;2023-02-22T16:20:37;101805.88;;;6.42;72.61
54022;BME280;39936;51.058;17.220;2023-02-22T16:30:58;101806.91;;;6.17;75.14
54022;BME280;39936;51.058;17.220;2023-02-22T16:35:04;101812.01;;;6.18;75.50
54022;BME280;39936;51.058;17.220;2023-02-22T16:38:32;101792.45;;;6.00;75.69
54022;BME280;39936;51.058;17.220;2023-02-22T16:42:30;101789.32;;;5.88;75.95
54022;BME280;39936;51.058;17.220;2023-02-22T16:46:08;101821.00;;;5.99;76.38
54022;BME280;39936;51.058;17.220;2023-02-22T16:49:34;101819.86;;;5.92;77.36
54022;BME280;39936;51.058;17.220;2023-02-22T16:53:10;101821.61;;;5.87;77.56
54022;BME280;39936;51.058;17.220;2023-02-22T16:56:46;101818.01;;;5.80;77.23
54022;BME280;39936;51.058;17.220;2023-02-22T17:00:21;101825.52;;;5.77;76.63
54022;BME280;39936;51.058;17.220;2023-02-22T17:08:02;101830.25;;;5.72;76.93
54022;BME280;39936;51.058;17.220;2023-02-22T17:11:52;101833.09;;;5.69;77.36
54022;BME280;39936;51.058;17.220;2023-02-22T17:15:48;101839.74;;;5.72;77.50
54022;BME280;39936;51.058;17.220;2023-02-22T17:19:22;101831.68;;;5.76;76.97
54022;BME280;39936;51.058;17.220;2023-02-22T17:22:44;101807.19;;;5.55;75.78
54022;BME280;39936;51.058;17.220;2023-02-22T17:26:03;101848.76;;;5.68;75.89
54022;BME280;39936;51.058;17.220;2023-02-22T17:29:25;101847.01;;;5.67;76.38
54022;BME280;39936;51.058;17.220;2023-02-22T17:32:53;101848.12;;;5.64;76.72
54022;BME280;39936;51.058;17.220;2023-02-22T17:36:24;101847.71;;;5.66;76.70
54022;BME280;39936;51.058;17.220;2023-02-22T17:40:14;101846.84;;;5.61;75.91
54022;BME280;39936;51.058;17.220;2023-02-22T17:44:03;101848.56;;;5.57;75.60
54022;BME280;39936;51.058;17.220;2023-02-22T17:47:28;101847.23;;;5.52;76.33
54022;BME280;39936;51.058;17.220;2023-02-22T17:50:46;101849.03;;;5.50;76.60
54022;BME280;39936;51.058;17.220;2023-02-22T18:02:38;101848.98;;;5.18;80.80
54022;BME280;39936;51.058;17.220;2023-02-22T18:06:00;101854.59;;;5.01;84.07
54022;BME280;39936;51.058;17.220;2023-02-22T18:09:19;101852.77;;;4.93;81.23
54022;BME280;39936;51.058;17.220;2023-02-22T18:13:10;101851.55;;;4.93;80.35
54022;BME280;39936;51.058;17.220;2023-02-22T18:16:33;101857.52;;;4.91;79.78
54022;BME280;39936;51.058;17.220;2023-02-22T18:19:55;101855.71;;;4.84;80.02
54022;BME280;39936;51.058;17.220;2023-02-22T18:23:20;101859.37;;;4.84;80.50
54022;BME280;39936;51.058;17.220;2023-02-22T18:26:48;101859.88;;;4.79;81.54
54022;BME280;39936;51.058;17.220;2023-02-22T18:30:57;101865.97;;;4.70;83.33
54022;BME280;39936;51.058;17.220;2023-02-22T18:34:53;101870.09;;;4.57;84.90
54022;BME280;39936;51.058;17.220;2023-02-22T18:38:22;101866.56;;;4.50;86.17
54022;BME280;39936;51.058;17.220;2023-02-22T18:42:04;101836.20;;;4.29;86.88
54022;BME280;39936;51.058;17.220;2023-02-22T18:46:05;101869.66;;;4.44;88.17
54022;BME280;39936;51.058;17.220;2023-02-22T18:49:25;101869.11;;;4.47;88.33
54022;BME280;39936;51.058;17.220;2023-02-22T18:53:00;101864.34;;;4.42;88.84
54022;BME280;39936;51.058;17.220;2023-02-22T18:56:38;101861.43;;;4.39;88.87
54022;BME280;39936;51.058;17.220;2023-02-22T19:00:34;101864.37;;;4.33;89.74
54022;BME280;39936;51.058;17.220;2023-02-22T19:04:22;101865.01;;;4.27;90.17
54022;BME280;39936;51.058;17.220;2023-02-22T19:08:08;101864.48;;;4.20;89.67
54022;BME280;39936;51.058;17.220;2023-02-22T19:11:32;101864.75;;;4.12;89.83
54022;BME280;39936;51.058;17.220;2023-02-22T19:14:54;101867.30;;;4.07;89.75
54022;BME280;39936;51.058;17.220;2023-02-22T19:18:17;101865.13;;;3.97;89.75
54022;BME280;39936;51.058;17.220;2023-02-22T19:22:01;101867.83;;;3.93;89.63
54022;BME280;39936;51.058;17.220;2023-02-22T19:26:05;101867.66;;;3.88;89.14
54022;BME280;39936;51.058;17.220;2023-02-22T19:30:03;101869.01;;;3.83;89.42
54022;BME280;39936;51.058;17.220;2023-02-22T19:37:40;101863.52;;;3.61;89.54
54022;BME280;39936;51.058;17.220;2023-02-22T19:41:10;101841.53;;;3.38;90.19
54022;BME280;39936;51.058;17.220;2023-02-22T19:44:56;101867.97;;;3.45;90.42
54022;BME280;39936;51.058;17.220;2023-02-22T19:48:39;101869.70;;;3.36;91.08
54022;BME280;39936;51.058;17.220;2023-02-22T19:52:32;101852.83;;;3.11;91.62
54022;BME280;39936;51.058;17.220;2023-02-22T19:56:33;101878.48;;;3.11;92.94
54022;BME280;39936;51.058;17.220;2023-02-22T20:00:20;101877.52;;;3.03;93.19
54022;BME280;39936;51.058;17.220;2023-02-22T20:04:09;101876.99;;;2.94;93.86
54022;BME280;39936;51.058;17.220;2023-02-22T20:07:24;101857.18;;;2.68;94.24
54022;BME280;39936;51.058;17.220;2023-02-22T20:11:14;101882.15;;;2.77;94.74
54022;BME280;39936;51.058;17.220;2023-02-22T20:14:37;101884.70;;;2.71;95.00
54022;BME280;39936;51.058;17.220;2023-02-22T20:18:05;101886.35;;;2.66;95.14
54022;BME280;39936;51.058;17.220;2023-02-22T20:21:53;101884.03;;;2.59;95.50
54022;BME280;39936;51.058;17.220;2023-02-22T20:26:01;101870.66;;;2.43;95.64
54022;BME280;39936;51.058;17.220;2023-02-22T20:29:59;101883.55;;;2.47;95.79
54022;BME280;39936;51.058;17.220;2023-02-22T20:37:11;101883.18;;;2.37;96.58
54022;BME280;39936;51.058;17.220;2023-02-22T20:41:10;101884.65;;;2.31;97.07
54022;BME280;39936;51.058;17.220;2023-02-22T20:44:48;101881.14;;;2.26;97.26
54022;BME280;39936;51.058;17.220;2023-02-22T20:48:09;101864.16;;;2.08;97.64
54022;BME280;39936;51.058;17.220;2023-02-22T20:51:32;101883.59;;;2.16;97.83
54022;BME280;39936;51.058;17.220;2023-02-22T20:54:58;101877.23;;;2.12;97.92
54022;BME280;39936;51.058;17.220;2023-02-22T20:58:44;101878.13;;;2.06;98.54
54022;BME280;39936;51.058;17.220;2023-02-22T21:02:05;101875.90;;;2.03;98.95
54022;BME280;39936;51.058;17.220;2023-02-22T21:05:49;101876.52;;;1.99;99.50
54022;BME280;39936;51.058;17.220;2023-02-22T21:09:30;101877.41;;;1.97;99.80
54022;BME280;39936;51.058;17.220;2023-02-22T21:13:36;101842.12;;;1.77;99.80
54022;BME280;39936;51.058;17.220;2023-02-22T21:19:05;101876.63;;;2.04;100.00
54022;BME280;39936;51.058;17.220;2023-02-22T21:24:31;101877.80;;;2.04;100.00
54022;BME280;39936;51.058;17.220;2023-02-22T21:28:28;101871.52;;;2.00;99.98
54022;BME280;39936;51.058;17.220;2023-02-22T21:32:11;101878.98;;;2.06;99.81
54022;BME280;39936;51.058;17.220;2023-02-22T21:35:27;101875.98;;;2.07;99.94
54022;BME280;39936;51.058;17.220;2023-02-22T21:43:20;101874.02;;;2.01;100.00
54022;BME280;39936;51.058;17.220;2023-02-22T21:47:00;101828.55;;;1.72;100.00
54022;BME280;39936;51.058;17.220;2023-02-22T21:50:35;101868.16;;;1.93;100.00
54022;BME280;39936;51.058;17.220;2023-02-22T21:55:04;101865.57;;;1.90;100.00
54022;BME280;39936;51.058;17.220;2023-02-22T21:59:02;101860.01;;;1.81;100.00
54022;BME280;39936;51.058;17.220;2023-02-22T22:02:49;101868.73;;;1.81;100.00
54022;BME280;39936;51.058;17.220;2023-02-22T22:10:53;101862.25;;;1.73;100.00
54022;BME280;39936;51.058;17.220;2023-02-22T22:14:43;101861.73;;;1.63;100.00
54022;BME280;39936;51.058;17.220;2023-02-22T22:18:49;101857.46;;;1.60;100.00
54022;BME280;39936;51.058;17.220;2023-02-22T22:22:31;101854.44;;;1.56;100.00
54022;BME280;39936;51.058;17.220;2023-02-22T22:26:09;101851.19;;;1.54;100.00
54022;BME280;39936;51.058;17.220;2023-02-22T22:33:48;101842.29;;;1.47;100.00
54022;BME280;39936;51.058;17.220;2023-02-22T22:37:07;101804.02;;;1.24;100.00
54022;BME280;39936;51.058;17.220;2023-02-22T22:41:03;101837.08;;;1.43;100.00
54022;BME280;39936;51.058;17.220;2023-02-22T22:44:40;101830.56;;;1.36;100.00
54022;BME280;39936;51.058;17.220;2023-02-22T22:48:39;101831.44;;;1.32;100.00
54022;BME280;39936;51.058;17.220;2023-02-22T22:52:27;101832.19;;;1.21;100.00
54022;BME280;39936;51.058;17.220;2023-02-22T22:56:22;101831.52;;;1.17;100.00
54022;BME280;39936;51.058;17.220;2023-02-22T23:00:12;101833.45;;;1.08;100.00
54022;BME280;39936;51.058;17.220;2023-02-22T23:07:41;101834.54;;;0.95;100.00
54022;BME280;39936;51.058;17.220;2023-02-22T23:11:09;101833.41;;;0.90;100.00
54022;BME280;39936;51.058;17.220;2023-02-22T23:15:42;101826.06;;;0.85;100.00
54022;BME280;39936;51.058;17.220;2023-02-22T23:19:35;101818.62;;;0.80;100.00
54022;BME280;39936;51.058;17.220;2023-02-22T23:22:54;101792.55;;;0.62;100.00
54022;BME280;39936;51.058;17.220;2023-02-22T23:26:44;101817.80;;;0.76;100.00
54022;BME280;39936;51.058;17.220;2023-02-22T23:30:27;101818.89;;;0.74;100.00